Madison, WI

5:59 PM CST on December 10, 2016 (GMT -0600)
Meadowwood | | Change Station
Active Advisory: Winter Storm Warning

Elev 1103 ft 43.02 °N, 89.50 °W | Updated 24 minutes ago

Overcast
Overcast
21.3 °F
Feels Like 21.3 °F
N
0.0
Wind Variable Wind from North
Gusts 0.0 mph

Today
High -- | Low -- °F
--% Chance of Precip.
Yesterday
High -- | Low -- °F
Precip. -- in
Pressure 30.34 in
Visibility 1.5 miles
Clouds Overcast 1400 ft
Dew Point 15.6 °F
Humidity 70%
Rainfall 0.00 in
Snow Depth Not available.
7:18 AM 4:23 PM
Waxing Gibbous, 87% visible
METAR KC29 102355Z AUTO 14004KT 1 1/2SM OVC014 M06/M08 A3034 RMK AO1 T10651080 11055 21066
Pressure 30.34 in
Visibility 1.5 miles
Clouds Overcast 1400 ft
Dew Point 15.6 °F
Humidity 70%
Rainfall 0.00 in
Snow Depth Not available.
7:18 AM 4:23 PM
Waxing Gibbous, 87% visible
METAR KC29 102355Z AUTO 14004KT 1 1/2SM OVC014 M06/M08 A3034 RMK AO1 T10651080 11055 21066

10-Day Weather Forecast

Almanac

Astronomy

Dec. 10, 2016 Rise Set
Actual Time
Civil Twilight
Nautical Twilight
Astronomical Twilight
Moon
Length of Visible Light
Length of Day
Tomorrow will be .
, % of the Moon is Illuminated

Today's Extremes

State Highs State Lows

Community

WunderPhotos

Upload Photos

1,956,677 photos uploaded!

WunderBlog® & News

Nearby

Air Quality

  Air Quality AQ Index Pollutant
Not available.

Snow Depth

Station Depth Elevation

Earthquake Activity

City Distance Mag. Time & Date
Minimum magnitude displayed is 2.5.

Coastal Water Temperatures

Place Temperature

Stations

Nearby Weather Stations

Station Location Temp. Windchill Dew Point Humidity Wind Precip. Elev Updated Type
                   

Watches & Warnings

Winter Storm Warning
Issued: 2:08 PM CST Dec. 10, 2016 – National Weather Service

... Winter Storm Warning in effect from 4 PM this afternoon until
6 PM CST Sunday...

The National Weather Service in Milwaukee/Sullivan has issued a
Winter Storm Warning... which is in effect from 4 PM this
afternoon until 6 PM CST Sunday. The Winter Storm Watch is no
longer in effect.

* Timing... snow developing late this afternoon... diminishing late
Sunday afternoon.

* Precipitation rates... the heaviest snowfall rates will this
evening through early Sunday morning.

* Snow accumulations... total snow accumulations of 7 to 10 inches
are expected.

* Visibilities... look for significant reductions in
visibility... down as low as one quarter to one half mile at
times.

* Impacts... hazardous driving conditions are expected due to snow
covered roads and reduced visibilities.

Precautionary/preparedness actions...

A Winter Storm Warning for snow means severe winter weather
conditions are expected. If you must travel... keep an extra
flashlight... food... and water in your vehicle in case of an
emergency. The latest Road conditions for Wisconsin can be
obtained by calling 5 1 1 or by visiting www.511wi.Gov (lower
case).